sensor_id;sensor_type;location;lat;lon;timestamp;P1;durP1;ratioP1;P2;durP2;ratioP2
20397;SDS011;10358;49.590;11.030;2023-04-24T00:01:49;5.13;;;2.40;;
20397;SDS011;10358;49.590;11.030;2023-04-24T00:04:15;3.37;;;1.80;;
20397;SDS011;10358;49.590;11.030;2023-04-24T00:06:42;3.23;;;2.00;;
20397;SDS011;10358;49.590;11.030;2023-04-24T00:09:08;3.20;;;1.93;;
20397;SDS011;10358;49.590;11.030;2023-04-24T00:11:37;4.07;;;2.33;;
20397;SDS011;10358;49.590;11.030;2023-04-24T00:14:03;3.33;;;2.00;;
20397;SDS011;10358;49.590;11.030;2023-04-24T00:16:28;4.60;;;1.93;;
20397;SDS011;10358;49.590;11.030;2023-04-24T00:18:54;5.03;;;2.40;;
20397;SDS011;10358;49.590;11.030;2023-04-24T00:21:20;3.63;;;2.17;;
20397;SDS011;10358;49.590;11.030;2023-04-24T00:23:46;3.30;;;2.23;;
20397;SDS011;10358;49.590;11.030;2023-04-24T00:26:12;5.87;;;2.10;;
20397;SDS011;10358;49.590;11.030;2023-04-24T00:28:39;5.30;;;2.10;;
20397;SDS011;10358;49.590;11.030;2023-04-24T00:31:04;3.83;;;2.10;;
20397;SDS011;10358;49.590;11.030;2023-04-24T00:33:30;5.43;;;2.23;;
20397;SDS011;10358;49.590;11.030;2023-04-24T00:35:56;4.10;;;2.20;;
20397;SDS011;10358;49.590;11.030;2023-04-24T00:38:21;4.07;;;2.03;;
20397;SDS011;10358;49.590;11.030;2023-04-24T00:40:47;3.90;;;2.00;;
20397;SDS011;10358;49.590;11.030;2023-04-24T00:43:14;4.70;;;2.17;;
20397;SDS011;10358;49.590;11.030;2023-04-24T00:45:40;2.93;;;1.97;;
20397;SDS011;10358;49.590;11.030;2023-04-24T00:48:06;3.83;;;2.20;;
20397;SDS011;10358;49.590;11.030;2023-04-24T00:50:32;7.10;;;2.20;;
20397;SDS011;10358;49.590;11.030;2023-04-24T00:52:58;3.70;;;1.90;;
20397;SDS011;10358;49.590;11.030;2023-04-24T00:55:24;5.10;;;2.10;;
20397;SDS011;10358;49.590;11.030;2023-04-24T00:57:50;3.73;;;2.20;;
20397;SDS011;10358;49.590;11.030;2023-04-24T01:00:16;3.80;;;2.00;;
20397;SDS011;10358;49.590;11.030;2023-04-24T01:02:43;4.40;;;2.30;;
20397;SDS011;10358;49.590;11.030;2023-04-24T01:05:10;4.77;;;2.40;;
20397;SDS011;10358;49.590;11.030;2023-04-24T01:07:41;3.90;;;2.23;;
20397;SDS011;10358;49.590;11.030;2023-04-24T01:10:10;4.10;;;2.30;;
20397;SDS011;10358;49.590;11.030;2023-04-24T01:12:37;4.87;;;2.60;;
20397;SDS011;10358;49.590;11.030;2023-04-24T01:15:03;5.80;;;2.50;;
20397;SDS011;10358;49.590;11.030;2023-04-24T01:17:29;4.60;;;2.40;;
20397;SDS011;10358;49.590;11.030;2023-04-24T01:19:56;2.70;;;1.90;;
20397;SDS011;10358;49.590;11.030;2023-04-24T01:22:22;4.50;;;2.17;;
20397;SDS011;10358;49.590;11.030;2023-04-24T01:24:47;5.50;;;2.40;;
20397;SDS011;10358;49.590;11.030;2023-04-24T01:27:13;7.23;;;2.60;;
20397;SDS011;10358;49.590;11.030;2023-04-24T01:29:39;6.20;;;2.60;;
20397;SDS011;10358;49.590;11.030;2023-04-24T01:32:05;3.50;;;2.13;;
20397;SDS011;10358;49.590;11.030;2023-04-24T01:34:31;3.43;;;2.20;;
20397;SDS011;10358;49.590;11.030;2023-04-24T01:36:57;4.83;;;2.10;;
20397;SDS011;10358;49.590;11.030;2023-04-24T01:39:23;3.63;;;2.13;;
20397;SDS011;10358;49.590;11.030;2023-04-24T01:41:50;6.10;;;2.20;;
20397;SDS011;10358;49.590;11.030;2023-04-24T01:44:17;3.80;;;2.10;;
20397;SDS011;10358;49.590;11.030;2023-04-24T01:46:42;4.77;;;2.37;;
20397;SDS011;10358;49.590;11.030;2023-04-24T01:49:08;3.40;;;2.23;;
20397;SDS011;10358;49.590;11.030;2023-04-24T01:51:34;5.73;;;2.50;;
20397;SDS011;10358;49.590;11.030;2023-04-24T01:53:59;3.90;;;2.43;;
20397;SDS011;10358;49.590;11.030;2023-04-24T01:56:25;5.53;;;2.30;;
20397;SDS011;10358;49.590;11.030;2023-04-24T01:58:53;4.23;;;2.10;;
20397;SDS011;10358;49.590;11.030;2023-04-24T02:01:20;2.93;;;1.90;;
20397;SDS011;10358;49.590;11.030;2023-04-24T02:03:45;3.10;;;1.97;;
20397;SDS011;10358;49.590;11.030;2023-04-24T02:06:11;3.27;;;1.90;;
20397;SDS011;10358;49.590;11.030;2023-04-24T02:08:37;3.93;;;2.10;;
20397;SDS011;10358;49.590;11.030;2023-04-24T02:11:02;2.93;;;1.70;;
20397;SDS011;10358;49.590;11.030;2023-04-24T02:13:28;4.67;;;2.20;;
20397;SDS011;10358;49.590;11.030;2023-04-24T02:15:53;2.93;;;1.87;;
20397;SDS011;10358;49.590;11.030;2023-04-24T02:18:19;4.13;;;2.20;;
20397;SDS011;10358;49.590;11.030;2023-04-24T02:20:45;2.73;;;2.03;;
20397;SDS011;10358;49.590;11.030;2023-04-24T02:23:11;4.00;;;2.10;;
20397;SDS011;10358;49.590;11.030;2023-04-24T02:25:38;3.20;;;2.00;;
20397;SDS011;10358;49.590;11.030;2023-04-24T02:28:03;2.37;;;1.77;;
20397;SDS011;10358;49.590;11.030;2023-04-24T02:30:29;3.87;;;1.87;;
20397;SDS011;10358;49.590;11.030;2023-04-24T02:32:54;3.23;;;1.80;;
20397;SDS011;10358;49.590;11.030;2023-04-24T02:35:20;3.67;;;2.10;;
20397;SDS011;10358;49.590;11.030;2023-04-24T02:37:45;4.23;;;1.90;;
20397;SDS011;10358;49.590;11.030;2023-04-24T02:40:11;2.77;;;1.83;;
20397;SDS011;10358;49.590;11.030;2023-04-24T02:42:37;3.50;;;1.67;;
20397;SDS011;10358;49.590;11.030;2023-04-24T02:45:02;4.10;;;1.93;;
20397;SDS011;10358;49.590;11.030;2023-04-24T02:47:28;4.90;;;2.40;;
20397;SDS011;10358;49.590;11.030;2023-04-24T02:49:54;4.80;;;2.80;;
20397;SDS011;10358;49.590;11.030;2023-04-24T02:52:19;3.70;;;2.03;;
20397;SDS011;10358;49.590;11.030;2023-04-24T02:54:45;4.23;;;2.40;;
20397;SDS011;10358;49.590;11.030;2023-04-24T02:57:10;5.13;;;2.60;;
20397;SDS011;10358;49.590;11.030;2023-04-24T02:59:36;5.20;;;2.10;;
20397;SDS011;10358;49.590;11.030;2023-04-24T03:02:02;3.37;;;1.70;;
20397;SDS011;10358;49.590;11.030;2023-04-24T03:04:27;3.50;;;1.90;;
20397;SDS011;10358;49.590;11.030;2023-04-24T03:06:53;2.23;;;1.40;;
20397;SDS011;10358;49.590;11.030;2023-04-24T03:09:20;3.80;;;1.60;;
20397;SDS011;10358;49.590;11.030;2023-04-24T03:11:46;3.80;;;1.60;;
20397;SDS011;10358;49.590;11.030;2023-04-24T03:14:11;3.37;;;1.80;;
20397;SDS011;10358;49.590;11.030;2023-04-24T03:16:37;2.10;;;1.47;;
20397;SDS011;10358;49.590;11.030;2023-04-24T03:19:03;2.73;;;1.50;;
20397;SDS011;10358;49.590;11.030;2023-04-24T03:21:29;2.90;;;1.60;;
20397;SDS011;10358;49.590;11.030;2023-04-24T03:23:54;3.00;;;1.50;;
20397;SDS011;10358;49.590;11.030;2023-04-24T03:26:20;2.50;;;1.53;;
20397;SDS011;10358;49.590;11.030;2023-04-24T03:28:45;3.20;;;1.50;;
20397;SDS011;10358;49.590;11.030;2023-04-24T03:31:11;2.93;;;1.23;;
20397;SDS011;10358;49.590;11.030;2023-04-24T03:33:36;4.37;;;1.37;;
20397;SDS011;10358;49.590;11.030;2023-04-24T03:36:02;4.00;;;1.50;;
20397;SDS011;10358;49.590;11.030;2023-04-24T03:38:28;2.43;;;1.50;;
20397;SDS011;10358;49.590;11.030;2023-04-24T03:40:53;3.50;;;1.37;;
20397;SDS011;10358;49.590;11.030;2023-04-24T03:43:19;1.77;;;1.30;;
20397;SDS011;10358;49.590;11.030;2023-04-24T03:45:45;3.93;;;1.90;;
20397;SDS011;10358;49.590;11.030;2023-04-24T03:48:10;3.07;;;1.80;;
20397;SDS011;10358;49.590;11.030;2023-04-24T03:50:36;2.13;;;1.20;;
20397;SDS011;10358;49.590;11.030;2023-04-24T03:53:01;4.17;;;1.90;;
20397;SDS011;10358;49.590;11.030;2023-04-24T03:55:27;4.87;;;2.03;;
20397;SDS011;10358;49.590;11.030;2023-04-24T03:57:52;2.27;;;1.40;;
20397;SDS011;10358;49.590;11.030;2023-04-24T04:00:18;4.37;;;1.50;;
20397;SDS011;10358;49.590;11.030;2023-04-24T04:02:44;3.50;;;1.10;;
20397;SDS011;10358;49.590;11.030;2023-04-24T04:05:09;2.27;;;1.37;;
20397;SDS011;10358;49.590;11.030;2023-04-24T04:07:35;3.63;;;1.20;;
20397;SDS011;10358;49.590;11.030;2023-04-24T04:10:00;2.33;;;1.60;;
20397;SDS011;10358;49.590;11.030;2023-04-24T04:12:26;2.77;;;1.37;;
20397;SDS011;10358;49.590;11.030;2023-04-24T04:14:51;2.20;;;1.30;;
20397;SDS011;10358;49.590;11.030;2023-04-24T04:17:17;4.23;;;1.43;;
20397;SDS011;10358;49.590;11.030;2023-04-24T04:19:43;6.30;;;1.60;;
20397;SDS011;10358;49.590;11.030;2023-04-24T04:22:08;2.53;;;1.40;;
20397;SDS011;10358;49.590;11.030;2023-04-24T04:24:34;2.40;;;1.40;;
20397;SDS011;10358;49.590;11.030;2023-04-24T04:27:03;2.57;;;1.37;;
20397;SDS011;10358;49.590;11.030;2023-04-24T04:29:31;3.50;;;1.30;;
20397;SDS011;10358;49.590;11.030;2023-04-24T04:31:57;1.80;;;1.23;;
20397;SDS011;10358;49.590;11.030;2023-04-24T04:34:23;2.50;;;1.43;;
20397;SDS011;10358;49.590;11.030;2023-04-24T04:36:49;3.53;;;1.40;;
20397;SDS011;10358;49.590;11.030;2023-04-24T04:39:15;4.27;;;1.73;;
20397;SDS011;10358;49.590;11.030;2023-04-24T04:41:41;5.03;;;2.03;;
20397;SDS011;10358;49.590;11.030;2023-04-24T04:44:07;4.20;;;1.70;;
20397;SDS011;10358;49.590;11.030;2023-04-24T04:46:33;4.70;;;2.23;;
20397;SDS011;10358;49.590;11.030;2023-04-24T04:49:00;6.07;;;2.40;;
20397;SDS011;10358;49.590;11.030;2023-04-24T04:51:26;4.77;;;1.80;;
20397;SDS011;10358;49.590;11.030;2023-04-24T04:53:52;3.57;;;1.80;;
20397;SDS011;10358;49.590;11.030;2023-04-24T04:56:18;2.33;;;1.50;;
20397;SDS011;10358;49.590;11.030;2023-04-24T04:58:43;3.73;;;1.80;;
20397;SDS011;10358;49.590;11.030;2023-04-24T05:01:09;3.87;;;1.60;;
20397;SDS011;10358;49.590;11.030;2023-04-24T05:03:34;3.33;;;1.63;;
20397;SDS011;10358;49.590;11.030;2023-04-24T05:06:00;2.23;;;1.67;;
20397;SDS011;10358;49.590;11.030;2023-04-24T05:08:27;3.90;;;1.50;;
20397;SDS011;10358;49.590;11.030;2023-04-24T05:10:52;3.70;;;1.47;;
20397;SDS011;10358;49.590;11.030;2023-04-24T05:13:18;2.40;;;1.20;;
20397;SDS011;10358;49.590;11.030;2023-04-24T05:15:44;2.17;;;1.37;;
20397;SDS011;10358;49.590;11.030;2023-04-24T05:18:10;5.07;;;1.20;;
20397;SDS011;10358;49.590;11.030;2023-04-24T05:20:35;4.03;;;1.40;;
20397;SDS011;10358;49.590;11.030;2023-04-24T05:23:01;2.47;;;1.30;;
20397;SDS011;10358;49.590;11.030;2023-04-24T05:25:27;2.57;;;1.50;;
20397;SDS011;10358;49.590;11.030;2023-04-24T05:27:52;3.70;;;1.40;;
20397;SDS011;10358;49.590;11.030;2023-04-24T05:30:18;3.87;;;1.90;;
20397;SDS011;10358;49.590;11.030;2023-04-24T05:32:44;5.37;;;1.53;;
20397;SDS011;10358;49.590;11.030;2023-04-24T05:35:10;4.23;;;1.50;;
20397;SDS011;10358;49.590;11.030;2023-04-24T05:37:35;5.00;;;1.40;;
20397;SDS011;10358;49.590;11.030;2023-04-24T05:40:01;3.53;;;1.60;;
20397;SDS011;10358;49.590;11.030;2023-04-24T05:42:29;5.80;;;1.70;;
20397;SDS011;10358;49.590;11.030;2023-04-24T05:44:54;3.20;;;1.63;;
20397;SDS011;10358;49.590;11.030;2023-04-24T05:47:20;3.77;;;1.70;;
20397;SDS011;10358;49.590;11.030;2023-04-24T05:49:47;3.83;;;1.80;;
20397;SDS011;10358;49.590;11.030;2023-04-24T05:52:12;4.37;;;1.60;;
20397;SDS011;10358;49.590;11.030;2023-04-24T05:54:38;2.20;;;1.50;;
20397;SDS011;10358;49.590;11.030;2023-04-24T05:57:04;4.33;;;1.90;;
20397;SDS011;10358;49.590;11.030;2023-04-24T05:59:32;4.10;;;1.83;;
20397;SDS011;10358;49.590;11.030;2023-04-24T06:01:59;2.33;;;1.30;;
20397;SDS011;10358;49.590;11.030;2023-04-24T06:04:25;2.33;;;1.60;;
20397;SDS011;10358;49.590;11.030;2023-04-24T06:06:50;3.27;;;1.70;;
20397;SDS011;10358;49.590;11.030;2023-04-24T06:09:20;7.97;;;1.80;;
20397;SDS011;10358;49.590;11.030;2023-04-24T06:11:47;2.30;;;1.63;;
20397;SDS011;10358;49.590;11.030;2023-04-24T06:14:12;6.50;;;1.90;;
20397;SDS011;10358;49.590;11.030;2023-04-24T06:16:38;4.50;;;1.43;;
20397;SDS011;10358;49.590;11.030;2023-04-24T06:19:05;2.80;;;1.40;;
20397;SDS011;10358;49.590;11.030;2023-04-24T06:21:30;5.97;;;1.40;;
20397;SDS011;10358;49.590;11.030;2023-04-24T06:23:56;4.10;;;1.30;;
20397;SDS011;10358;49.590;11.030;2023-04-24T06:26:23;4.43;;;1.40;;
20397;SDS011;10358;49.590;11.030;2023-04-24T06:28:50;1.80;;;1.33;;
20397;SDS011;10358;49.590;11.030;2023-04-24T06:31:16;2.10;;;1.30;;
20397;SDS011;10358;49.590;11.030;2023-04-24T06:33:42;2.83;;;1.17;;
20397;SDS011;10358;49.590;11.030;2023-04-24T06:36:08;2.27;;;1.20;;
20397;SDS011;10358;49.590;11.030;2023-04-24T06:38:33;1.90;;;1.13;;
20397;SDS011;10358;49.590;11.030;2023-04-24T06:40:59;3.00;;;1.20;;
20397;SDS011;10358;49.590;11.030;2023-04-24T06:43:25;4.67;;;1.33;;
20397;SDS011;10358;49.590;11.030;2023-04-24T06:45:50;3.50;;;1.23;;
20397;SDS011;10358;49.590;11.030;2023-04-24T06:48:16;3.83;;;0.90;;
20397;SDS011;10358;49.590;11.030;2023-04-24T06:50:41;1.40;;;1.00;;
20397;SDS011;10358;49.590;11.030;2023-04-24T06:53:07;1.73;;;1.00;;
20397;SDS011;10358;49.590;11.030;2023-04-24T06:55:35;2.23;;;1.00;;
20397;SDS011;10358;49.590;11.030;2023-04-24T06:58:01;2.67;;;1.00;;
20397;SDS011;10358;49.590;11.030;2023-04-24T07:00:26;1.97;;;0.90;;
20397;SDS011;10358;49.590;11.030;2023-04-24T07:02:52;0.83;;;0.77;;
20397;SDS011;10358;49.590;11.030;2023-04-24T07:05:17;1.00;;;0.77;;
20397;SDS011;10358;49.590;11.030;2023-04-24T07:07:45;1.57;;;0.97;;
20397;SDS011;10358;49.590;11.030;2023-04-24T07:10:12;2.27;;;0.90;;
20397;SDS011;10358;49.590;11.030;2023-04-24T07:12:38;2.97;;;0.93;;
20397;SDS011;10358;49.590;11.030;2023-04-24T07:15:04;1.80;;;0.90;;
20397;SDS011;10358;49.590;11.030;2023-04-24T07:17:30;0.90;;;0.80;;
20397;SDS011;10358;49.590;11.030;2023-04-24T07:20:00;2.20;;;1.03;;
20397;SDS011;10358;49.590;11.030;2023-04-24T07:22:25;1.53;;;0.90;;
20397;SDS011;10358;49.590;11.030;2023-04-24T07:24:51;2.17;;;0.90;;
20397;SDS011;10358;49.590;11.030;2023-04-24T07:27:17;1.37;;;1.00;;
20397;SDS011;10358;49.590;11.030;2023-04-24T07:29:42;1.63;;;0.97;;
20397;SDS011;10358;49.590;11.030;2023-04-24T07:32:08;1.97;;;1.00;;
20397;SDS011;10358;49.590;11.030;2023-04-24T07:34:34;1.70;;;1.10;;
20397;SDS011;10358;49.590;11.030;2023-04-24T07:37:00;2.00;;;0.93;;
20397;SDS011;10358;49.590;11.030;2023-04-24T07:39:25;2.70;;;1.00;;
20397;SDS011;10358;49.590;11.030;2023-04-24T07:41:51;2.63;;;1.10;;
20397;SDS011;10358;49.590;11.030;2023-04-24T07:44:17;2.50;;;1.27;;
20397;SDS011;10358;49.590;11.030;2023-04-24T07:46:42;1.67;;;1.20;;
20397;SDS011;10358;49.590;11.030;2023-04-24T07:49:08;5.87;;;1.30;;
20397;SDS011;10358;49.590;11.030;2023-04-24T07:51:33;1.43;;;1.17;;
20397;SDS011;10358;49.590;11.030;2023-04-24T07:54:03;2.20;;;1.30;;
20397;SDS011;10358;49.590;11.030;2023-04-24T07:56:30;3.10;;;1.50;;
20397;SDS011;10358;49.590;11.030;2023-04-24T07:58:56;2.40;;;1.30;;
20397;SDS011;10358;49.590;11.030;2023-04-24T08:01:22;1.30;;;1.20;;
20397;SDS011;10358;49.590;11.030;2023-04-24T08:03:47;4.27;;;1.40;;
20397;SDS011;10358;49.590;11.030;2023-04-24T08:06:13;2.43;;;1.40;;
20397;SDS011;10358;49.590;11.030;2023-04-24T08:08:39;1.93;;;1.33;;
20397;SDS011;10358;49.590;11.030;2023-04-24T08:11:04;5.00;;;1.20;;
20397;SDS011;10358;49.590;11.030;2023-04-24T08:13:30;2.67;;;1.57;;
20397;SDS011;10358;49.590;11.030;2023-04-24T08:15:56;3.47;;;1.50;;
20397;SDS011;10358;49.590;11.030;2023-04-24T08:18:21;2.73;;;1.40;;
20397;SDS011;10358;49.590;11.030;2023-04-24T08:20:47;2.87;;;1.67;;
20397;SDS011;10358;49.590;11.030;2023-04-24T08:23:13;2.03;;;1.50;;
20397;SDS011;10358;49.590;11.030;2023-04-24T08:25:38;2.27;;;1.60;;
20397;SDS011;10358;49.590;11.030;2023-04-24T08:28:05;3.03;;;1.53;;
20397;SDS011;10358;49.590;11.030;2023-04-24T08:30:31;6.53;;;2.03;;
20397;SDS011;10358;49.590;11.030;2023-04-24T08:32:57;6.33;;;1.67;;
20397;SDS011;10358;49.590;11.030;2023-04-24T08:35:23;2.23;;;1.53;;
20397;SDS011;10358;49.590;11.030;2023-04-24T08:37:49;2.13;;;1.60;;
20397;SDS011;10358;49.590;11.030;2023-04-24T08:40:15;3.47;;;1.60;;
20397;SDS011;10358;49.590;11.030;2023-04-24T08:42:44;4.00;;;2.30;;
20397;SDS011;10358;49.590;11.030;2023-04-24T08:45:11;4.53;;;1.80;;
20397;SDS011;10358;49.590;11.030;2023-04-24T08:47:38;3.00;;;1.70;;
20397;SDS011;10358;49.590;11.030;2023-04-24T08:50:04;3.50;;;2.13;;
20397;SDS011;10358;49.590;11.030;2023-04-24T08:52:32;4.37;;;2.13;;
20397;SDS011;10358;49.590;11.030;2023-04-24T08:54:59;3.00;;;2.10;;
20397;SDS011;10358;49.590;11.030;2023-04-24T08:57:26;3.83;;;2.10;;
20397;SDS011;10358;49.590;11.030;2023-04-24T08:59:52;3.30;;;2.10;;
20397;SDS011;10358;49.590;11.030;2023-04-24T09:02:19;3.13;;;1.90;;
20397;SDS011;10358;49.590;11.030;2023-04-24T09:04:45;3.03;;;1.90;;
20397;SDS011;10358;49.590;11.030;2023-04-24T09:07:12;2.93;;;1.70;;
20397;SDS011;10358;49.590;11.030;2023-04-24T09:09:41;3.83;;;1.80;;
20397;SDS011;10358;49.590;11.030;2023-04-24T09:12:07;2.47;;;1.60;;
20397;SDS011;10358;49.590;11.030;2023-04-24T09:14:35;2.93;;;1.60;;
20397;SDS011;10358;49.590;11.030;2023-04-24T09:17:04;2.50;;;1.90;;
20397;SDS011;10358;49.590;11.030;2023-04-24T09:19:31;4.33;;;1.87;;
20397;SDS011;10358;49.590;11.030;2023-04-24T09:21:56;3.63;;;1.90;;
20397;SDS011;10358;49.590;11.030;2023-04-24T09:24:22;2.77;;;1.70;;
20397;SDS011;10358;49.590;11.030;2023-04-24T09:26:48;4.00;;;1.60;;
20397;SDS011;10358;49.590;11.030;2023-04-24T09:29:20;4.00;;;2.20;;
20397;SDS011;10358;49.590;11.030;2023-04-24T09:31:46;3.80;;;1.90;;
20397;SDS011;10358;49.590;11.030;2023-04-24T09:34:11;5.03;;;1.70;;
20397;SDS011;10358;49.590;11.030;2023-04-24T09:36:38;3.13;;;1.63;;
20397;SDS011;10358;49.590;11.030;2023-04-24T09:39:07;2.70;;;1.70;;
20397;SDS011;10358;49.590;11.030;2023-04-24T09:41:35;4.53;;;1.80;;
20397;SDS011;10358;49.590;11.030;2023-04-24T09:44:13;2.27;;;1.50;;
20397;SDS011;10358;49.590;11.030;2023-04-24T09:46:44;2.37;;;1.63;;
20397;SDS011;10358;49.590;11.030;2023-04-24T09:49:14;2.50;;;1.63;;
20397;SDS011;10358;49.590;11.030;2023-04-24T09:51:41;2.67;;;1.50;;
20397;SDS011;10358;49.590;11.030;2023-04-24T09:54:17;2.87;;;1.70;;
20397;SDS011;10358;49.590;11.030;2023-04-24T09:56:46;4.50;;;1.70;;
20397;SDS011;10358;49.590;11.030;2023-04-24T09:59:16;3.33;;;1.80;;
20397;SDS011;10358;49.590;11.030;2023-04-24T10:01:43;5.17;;;1.77;;
20397;SDS011;10358;49.590;11.030;2023-04-24T10:04:19;4.27;;;1.60;;
20397;SDS011;10358;49.590;11.030;2023-04-24T10:06:47;4.87;;;1.53;;
20397;SDS011;10358;49.590;11.030;2023-04-24T10:09:14;2.50;;;1.60;;
20397;SDS011;10358;49.590;11.030;2023-04-24T10:11:41;3.33;;;1.70;;
20397;SDS011;10358;49.590;11.030;2023-04-24T10:14:09;2.80;;;1.70;;
20397;SDS011;10358;49.590;11.030;2023-04-24T10:16:39;4.20;;;1.60;;
20397;SDS011;10358;49.590;11.030;2023-04-24T10:19:05;2.20;;;1.30;;
20397;SDS011;10358;49.590;11.030;2023-04-24T10:21:31;4.23;;;1.30;;
20397;SDS011;10358;49.590;11.030;2023-04-24T10:23:57;3.20;;;1.53;;
20397;SDS011;10358;49.590;11.030;2023-04-24T10:26:24;2.57;;;1.50;;
20397;SDS011;10358;49.590;11.030;2023-04-24T10:28:52;3.17;;;1.43;;
20397;SDS011;10358;49.590;11.030;2023-04-24T10:31:19;1.87;;;1.30;;
20397;SDS011;10358;49.590;11.030;2023-04-24T10:33:45;1.40;;;1.03;;
20397;SDS011;10358;49.590;11.030;2023-04-24T10:36:11;1.23;;;1.10;;
20397;SDS011;10358;49.590;11.030;2023-04-24T10:38:39;1.97;;;1.00;;
20397;SDS011;10358;49.590;11.030;2023-04-24T10:41:07;1.33;;;0.90;;
20397;SDS011;10358;49.590;11.030;2023-04-24T10:43:35;0.97;;;0.73;;
20397;SDS011;10358;49.590;11.030;2023-04-24T10:46:01;1.13;;;0.80;;
20397;SDS011;10358;49.590;11.030;2023-04-24T10:48:29;1.07;;;0.77;;
20397;SDS011;10358;49.590;11.030;2023-04-24T10:50:55;5.33;;;0.83;;
20397;SDS011;10358;49.590;11.030;2023-04-24T10:53:24;0.80;;;0.77;;
20397;SDS011;10358;49.590;11.030;2023-04-24T10:56:02;1.60;;;0.80;;
20397;SDS011;10358;49.590;11.030;2023-04-24T10:58:40;1.70;;;1.00;;
20397;SDS011;10358;49.590;11.030;2023-04-24T11:01:09;3.93;;;1.10;;
20397;SDS011;10358;49.590;11.030;2023-04-24T11:03:56;1.63;;;1.03;;
20397;SDS011;10358;49.590;11.030;2023-04-24T11:06:30;3.87;;;1.00;;
20397;SDS011;10358;49.590;11.030;2023-04-24T11:09:04;3.77;;;1.30;;
20397;SDS011;10358;49.590;11.030;2023-04-24T11:11:31;3.07;;;1.27;;
20397;SDS011;10358;49.590;11.030;2023-04-24T11:18:59;2.43;;;1.37;;
20397;SDS011;10358;49.590;11.030;2023-04-24T11:21:31;3.53;;;1.20;;
20397;SDS011;10358;49.590;11.030;2023-04-24T11:23:57;2.50;;;1.40;;
20397;SDS011;10358;49.590;11.030;2023-04-24T11:26:23;2.67;;;1.30;;
20397;SDS011;10358;49.590;11.030;2023-04-24T11:28:55;2.50;;;1.40;;
20397;SDS011;10358;49.590;11.030;2023-04-24T11:31:38;2.23;;;1.40;;
20397;SDS011;10358;49.590;11.030;2023-04-24T11:34:10;1.97;;;1.63;;
20397;SDS011;10358;49.590;11.030;2023-04-24T11:36:37;3.80;;;1.60;;
20397;SDS011;10358;49.590;11.030;2023-04-24T11:39:03;2.90;;;1.60;;
20397;SDS011;10358;49.590;11.030;2023-04-24T11:41:29;2.53;;;1.70;;
20397;SDS011;10358;49.590;11.030;2023-04-24T11:43:55;2.80;;;1.70;;
20397;SDS011;10358;49.590;11.030;2023-04-24T11:46:22;1.93;;;1.37;;
20397;SDS011;10358;49.590;11.030;2023-04-24T11:48:48;1.87;;;1.60;;
20397;SDS011;10358;49.590;11.030;2023-04-24T11:51:13;1.97;;;1.37;;
20397;SDS011;10358;49.590;11.030;2023-04-24T11:53:39;2.43;;;1.47;;
20397;SDS011;10358;49.590;11.030;2023-04-24T11:56:05;2.47;;;1.53;;
20397;SDS011;10358;49.590;11.030;2023-04-24T11:58:37;3.70;;;1.50;;
20397;SDS011;10358;49.590;11.030;2023-04-24T12:01:04;2.27;;;1.50;;
20397;SDS011;10358;49.590;11.030;2023-04-24T12:03:30;4.20;;;1.63;;
20397;SDS011;10358;49.590;11.030;2023-04-24T12:06:06;4.80;;;1.47;;
20397;SDS011;10358;49.590;11.030;2023-04-24T12:08:33;2.27;;;1.50;;
20397;SDS011;10358;49.590;11.030;2023-04-24T12:10:59;2.03;;;1.53;;
20397;SDS011;10358;49.590;11.030;2023-04-24T12:13:26;3.67;;;1.70;;
20397;SDS011;10358;49.590;11.030;2023-04-24T12:15:52;2.43;;;1.50;;
20397;SDS011;10358;49.590;11.030;2023-04-24T12:18:17;3.20;;;1.73;;
20397;SDS011;10358;49.590;11.030;2023-04-24T12:20:43;3.80;;;1.97;;
20397;SDS011;10358;49.590;11.030;2023-04-24T12:23:08;2.37;;;1.70;;
20397;SDS011;10358;49.590;11.030;2023-04-24T12:25:34;2.57;;;1.70;;
20397;SDS011;10358;49.590;11.030;2023-04-24T12:28:08;3.67;;;1.83;;
20397;SDS011;10358;49.590;11.030;2023-04-24T12:30:47;4.27;;;1.70;;
20397;SDS011;10358;49.590;11.030;2023-04-24T12:33:22;3.10;;;1.60;;
20397;SDS011;10358;49.590;11.030;2023-04-24T12:35:50;3.37;;;2.00;;
20397;SDS011;10358;49.590;11.030;2023-04-24T12:38:21;2.80;;;1.70;;
20397;SDS011;10358;49.590;11.030;2023-04-24T12:40:47;2.83;;;1.67;;
20397;SDS011;10358;49.590;11.030;2023-04-24T12:43:13;3.57;;;1.50;;
20397;SDS011;10358;49.590;11.030;2023-04-24T12:45:40;3.23;;;1.60;;
20397;SDS011;10358;49.590;11.030;2023-04-24T12:48:06;4.37;;;1.77;;
20397;SDS011;10358;49.590;11.030;2023-04-24T12:50:31;4.80;;;1.83;;
20397;SDS011;10358;49.590;11.030;2023-04-24T12:52:57;4.70;;;1.80;;
20397;SDS011;10358;49.590;11.030;2023-04-24T12:55:22;4.57;;;1.90;;
20397;SDS011;10358;49.590;11.030;2023-04-24T12:57:48;2.40;;;1.60;;
20397;SDS011;10358;49.590;11.030;2023-04-24T13:00:14;2.30;;;1.60;;
20397;SDS011;10358;49.590;11.030;2023-04-24T13:02:40;3.03;;;1.70;;
20397;SDS011;10358;49.590;11.030;2023-04-24T13:05:05;2.90;;;1.60;;
20397;SDS011;10358;49.590;11.030;2023-04-24T13:07:31;3.20;;;1.70;;
20397;SDS011;10358;49.590;11.030;2023-04-24T13:09:57;3.23;;;1.70;;
20397;SDS011;10358;49.590;11.030;2023-04-24T13:12:23;2.17;;;1.60;;
20397;SDS011;10358;49.590;11.030;2023-04-24T13:14:50;2.83;;;1.60;;
20397;SDS011;10358;49.590;11.030;2023-04-24T13:17:16;1.80;;;1.47;;
20397;SDS011;10358;49.590;11.030;2023-04-24T13:19:42;2.63;;;1.60;;
20397;SDS011;10358;49.590;11.030;2023-04-24T13:22:09;1.60;;;1.50;;
20397;SDS011;10358;49.590;11.030;2023-04-24T13:24:36;2.57;;;1.40;;
20397;SDS011;10358;49.590;11.030;2023-04-24T13:27:02;2.53;;;1.50;;
20397;SDS011;10358;49.590;11.030;2023-04-24T13:29:28;2.57;;;1.33;;
20397;SDS011;10358;49.590;11.030;2023-04-24T13:31:54;2.63;;;1.50;;
20397;SDS011;10358;49.590;11.030;2023-04-24T13:34:20;4.67;;;1.70;;
20397;SDS011;10358;49.590;11.030;2023-04-24T13:36:50;2.10;;;1.60;;
20397;SDS011;10358;49.590;11.030;2023-04-24T13:39:19;5.87;;;1.80;;
20397;SDS011;10358;49.590;11.030;2023-04-24T13:41:45;5.27;;;1.70;;
20397;SDS011;10358;49.590;11.030;2023-04-24T13:44:13;3.10;;;1.73;;
20397;SDS011;10358;49.590;11.030;2023-04-24T13:46:43;3.80;;;1.40;;
20397;SDS011;10358;49.590;11.030;2023-04-24T13:49:10;5.80;;;1.90;;
20397;SDS011;10358;49.590;11.030;2023-04-24T13:51:36;4.27;;;1.63;;
20397;SDS011;10358;49.590;11.030;2023-04-24T13:54:02;4.23;;;1.80;;
20397;SDS011;10358;49.590;11.030;2023-04-24T13:56:27;4.20;;;1.50;;
20397;SDS011;10358;49.590;11.030;2023-04-24T13:58:53;2.17;;;1.50;;
20397;SDS011;10358;49.590;11.030;2023-04-24T14:01:19;5.30;;;1.30;;
20397;SDS011;10358;49.590;11.030;2023-04-24T14:03:49;2.40;;;1.13;;
20397;SDS011;10358;49.590;11.030;2023-04-24T14:06:14;1.27;;;1.00;;
20397;SDS011;10358;49.590;11.030;2023-04-24T14:08:40;2.50;;;1.17;;
20397;SDS011;10358;49.590;11.030;2023-04-24T14:11:06;2.22;;;1.30;;
20397;SDS011;10358;49.590;11.030;2023-04-24T14:13:31;2.85;;;1.50;;
20397;SDS011;10358;49.590;11.030;2023-04-24T14:15:57;2.92;;;1.50;;
20397;SDS011;10358;49.590;11.030;2023-04-24T14:18:23;2.28;;;1.50;;
20397;SDS011;10358;49.590;11.030;2023-04-24T14:20:49;1.77;;;1.30;;
20397;SDS011;10358;49.590;11.030;2023-04-24T14:23:15;1.75;;;1.40;;
20397;SDS011;10358;49.590;11.030;2023-04-24T14:25:41;2.33;;;1.70;;
20397;SDS011;10358;49.590;11.030;2023-04-24T14:28:06;2.25;;;1.40;;
20397;SDS011;10358;49.590;11.030;2023-04-24T14:30:32;5.13;;;1.73;;
20397;SDS011;10358;49.590;11.030;2023-04-24T14:32:57;3.90;;;1.73;;
20397;SDS011;10358;49.590;11.030;2023-04-24T14:35:23;3.38;;;1.80;;